Terminal Aerodrome Forecast
Issued by NWS Newport/Morehead City, NC

Home | Current Version | Previous Version | Graphics & Text | Print | Product List | Glossary On
Versions: 1 2 3 4 5 6 7 8 9 10 11 12 13 14
000
FTUS42 KMHX 251128
TAFEWN
TAF
KEWN 251128Z 2512/2612 23006KT P6SM VCSH SCT050 OVC100
     FM252000 19010KT 5SM -RA BR SCT007 OVC020
     FM260000 19005KT 3SM -RA BR BKN007 OVC015
     FM260300 VRB03KT 4SM BR VCSH OVC004=

USA.gov is the U.S. government's official web portal to all federal, state and local government web resources and services.